Terminal Aerodrome Forecast
Issued by NWS Jackson, MS

Home | Current Version | Previous Version | Text Only | Print | Product List | Glossary On
Versions: 1 2 3 4 5 6 7 8 9 10 11 12 13 14
530
FTUS44 KJAN 270520
TAFGWO
TAF
KGWO 270520Z 2706/2806 17008KT P6SM SCT050 OVC100
     FM271000 16008KT P6SM OVC015
     FM271500 17012G18KT P6SM BKN035
     FM271800 16014G20KT P6SM VCTS BKN050CB
     FM280000 16008KT P6SM BKN250=

USA.gov is the U.S. government's official web portal to all federal, state and local government web resources and services.